createdAt,value
2023-01-10T00:01:15.562Z,78.20
2023-01-10T00:04:17.948Z,77.44
2023-01-10T00:07:20.305Z,77.60
2023-01-10T00:10:22.954Z,77.68
2023-01-10T00:13:25.318Z,77.76
2023-01-10T00:16:27.810Z,77.81
2023-01-10T00:19:30.635Z,77.61
2023-01-10T00:22:33.099Z,77.37
2023-01-10T00:25:36.347Z,78.40
2023-01-10T00:28:39.737Z,78.00
2023-01-10T00:31:42.078Z,77.46
2023-01-10T00:34:44.374Z,77.77
2023-01-10T00:37:46.988Z,77.51
2023-01-10T00:40:49.372Z,77.51
2023-01-10T00:43:57.504Z,77.28
2023-01-10T00:46:59.911Z,78.46
2023-01-10T00:50:02.195Z,78.25
2023-01-10T00:53:04.421Z,77.92
2023-01-10T00:56:07.078Z,77.56
2023-01-10T00:59:09.589Z,77.53
2023-01-10T01:02:12.074Z,77.81
2023-01-10T01:05:14.466Z,77.49
2023-01-10T01:08:18.468Z,77.60
2023-01-10T01:11:20.755Z,78.04
2023-01-10T01:14:24.486Z,78.26
2023-01-10T01:17:26.908Z,77.91
2023-01-10T01:20:29.464Z,77.97
2023-01-10T01:23:34.903Z,78.16
2023-01-10T01:26:37.260Z,78.08
2023-01-10T01:29:43.244Z,78.12
2023-01-10T01:32:46.759Z,77.93
2023-01-10T01:35:50.301Z,78.03
2023-01-10T01:38:52.737Z,77.87
2023-01-10T01:41:57.847Z,77.64
2023-01-10T01:45:23.065Z,78.16
2023-01-10T01:48:28.189Z,77.54
2023-01-10T01:51:31.239Z,77.62
2023-01-10T01:54:34.306Z,77.79
2023-01-10T01:57:36.724Z,77.75
2023-01-10T02:00:39.076Z,77.86
2023-01-10T02:03:43.532Z,77.48
2023-01-10T02:06:48.417Z,77.54
2023-01-10T02:09:54.308Z,77.34
2023-01-10T02:13:01.475Z,77.15
2023-01-10T02:16:04.219Z,77.57
2023-01-10T02:19:17.826Z,77.05
2023-01-10T02:22:47.975Z,77.80
2023-01-10T02:26:07.768Z,77.65
2023-01-10T02:29:16.214Z,77.93
2023-01-10T02:32:56.985Z,77.39
2023-01-10T02:36:25.269Z,77.50
2023-01-10T02:39:39.927Z,77.46
2023-01-10T02:43:02.576Z,76.88
2023-01-10T02:46:13.641Z,77.25
2023-01-10T02:49:15.923Z,76.44
2023-01-10T02:52:22.374Z,76.42
2023-01-10T02:55:28.515Z,76.91
2023-01-10T02:58:33.737Z,76.89
2023-01-10T03:02:00.689Z,76.63
2023-01-10T03:05:30.429Z,76.94
2023-01-10T03:08:37.071Z,76.80
2023-01-10T03:11:43.328Z,77.03
2023-01-10T03:14:47.508Z,77.10
2023-01-10T03:17:52.937Z,77.41
2023-01-10T03:20:56.577Z,77.40
2023-01-10T03:24:07.678Z,77.69
2023-01-10T03:27:20.743Z,77.80
2023-01-10T03:30:35.799Z,77.58
2023-01-10T03:33:38.191Z,77.73
2023-01-10T03:36:53.355Z,76.84
2023-01-10T03:40:27.184Z,76.96
2023-01-10T03:44:15.753Z,77.13
2023-01-10T03:47:48.357Z,77.20
2023-01-10T03:50:51.358Z,77.16
2023-01-10T03:53:53.702Z,77.06
2023-01-10T03:56:55.984Z,77.06
2023-01-10T03:59:59.320Z,77.29
2023-01-10T04:03:01.780Z,76.91
2023-01-10T04:06:04.429Z,77.31
2023-01-10T04:09:06.741Z,77.58
2023-01-10T04:12:09.024Z,77.33
2023-01-10T04:15:11.644Z,77.36
2023-01-10T04:18:15.908Z,77.61
2023-01-10T04:21:18.354Z,77.54
2023-01-10T04:24:20.759Z,77.14
2023-01-10T04:27:23.114Z,77.24
2023-01-10T04:30:25.414Z,77.98
2023-01-10T04:33:28.570Z,77.78
2023-01-10T04:36:30.895Z,77.70
2023-01-10T04:39:33.284Z,77.23
2023-01-10T04:42:35.704Z,77.19
2023-01-10T04:45:38.073Z,77.19
2023-01-10T04:48:40.455Z,77.07
2023-01-10T04:51:42.755Z,77.16
2023-01-10T04:54:44.993Z,77.47
2023-01-10T04:57:47.497Z,77.47
2023-01-10T05:00:49.805Z,78.02
2023-01-10T05:03:53.955Z,78.18
2023-01-10T05:06:56.258Z,78.16
2023-01-10T05:09:58.589Z,78.24
2023-01-10T05:13:00.883Z,77.90
2023-01-10T05:16:03.615Z,77.82
2023-01-10T05:19:05.956Z,78.18
2023-01-10T05:22:08.205Z,78.54
2023-01-10T05:25:10.476Z,78.71
2023-01-10T05:28:12.891Z,78.28
2023-01-10T05:31:17.052Z,79.08
2023-01-10T05:34:19.554Z,78.57
2023-01-10T05:37:21.820Z,78.17
2023-01-10T05:40:24.141Z,77.61
2023-01-10T05:43:27.268Z,78.31
2023-01-10T05:46:29.482Z,78.89
2023-01-10T05:49:34.063Z,78.50
2023-01-10T05:52:36.493Z,77.78
2023-01-10T05:55:38.888Z,77.48
2023-01-10T05:58:41.288Z,78.08
2023-01-10T06:01:44.214Z,77.82
2023-01-10T06:04:47.050Z,77.97
2023-01-10T06:07:49.392Z,78.30
2023-01-10T06:10:52.103Z,78.35
2023-01-10T06:13:55.812Z,78.16
2023-01-10T06:17:01.436Z,77.46
2023-01-10T06:20:04.069Z,77.32
2023-01-10T06:23:09.149Z,77.39
2023-01-10T06:26:20.417Z,77.34
2023-01-10T06:29:23.295Z,77.97
2023-01-10T06:32:25.927Z,77.74
2023-01-10T06:35:29.090Z,77.21
2023-01-10T06:38:31.555Z,77.74
2023-01-10T06:41:33.864Z,77.80
2023-01-10T06:44:36.206Z,77.27
2023-01-10T06:47:38.737Z,77.79
2023-01-10T06:50:41.291Z,78.18
2023-01-10T06:53:44.418Z,78.09
2023-01-10T06:56:49.812Z,77.71
2023-01-10T06:59:52.352Z,77.98
2023-01-10T07:02:58.058Z,76.60
2023-01-10T07:06:04.014Z,77.61
2023-01-10T07:09:11.658Z,77.33
2023-01-10T07:12:13.946Z,76.48
2023-01-10T07:15:16.228Z,76.78
2023-01-10T07:18:18.572Z,76.78
2023-01-10T07:21:22.831Z,76.92
2023-01-10T07:24:25.209Z,77.75
2023-01-10T07:27:30.132Z,77.16
2023-01-10T07:31:09.418Z,77.47
2023-01-10T07:34:14.404Z,77.78
2023-01-10T07:37:16.689Z,78.14
2023-01-10T07:40:18.968Z,77.52
2023-01-10T07:43:21.203Z,77.22
2023-01-10T07:46:23.639Z,77.82
2023-01-10T07:49:26.023Z,77.58
2023-01-10T07:52:28.531Z,77.33
2023-01-10T07:55:39.091Z,77.61
2023-01-10T07:58:46.394Z,77.25
2023-01-10T08:01:48.884Z,77.48
2023-01-10T08:05:15.853Z,77.33
2023-01-10T08:08:25.761Z,76.67
2023-01-10T08:11:28.277Z,77.01
2023-01-10T08:14:30.702Z,76.22
2023-01-10T08:17:34.279Z,76.88
2023-01-10T08:20:41.293Z,77.36
2023-01-10T08:23:44.474Z,77.60
2023-01-10T08:26:46.889Z,77.48
2023-01-10T08:29:49.825Z,76.97
2023-01-10T08:32:53.416Z,76.71
2023-01-10T08:35:55.891Z,76.86
2023-01-10T08:38:58.191Z,77.13
2023-01-10T08:42:01.750Z,76.70
2023-01-10T08:45:04.534Z,76.87
2023-01-10T08:48:11.776Z,77.49
2023-01-10T08:51:19.431Z,77.42
2023-01-10T08:54:21.817Z,76.31
2023-01-10T08:57:24.239Z,76.75
2023-01-10T09:00:26.642Z,76.73
2023-01-10T09:03:28.934Z,77.47
2023-01-10T09:06:31.263Z,77.37
2023-01-10T09:09:33.725Z,76.90
2023-01-10T09:12:54.554Z,77.34
2023-01-10T09:15:58.500Z,76.53
2023-01-10T09:19:00.981Z,76.76
2023-01-10T09:22:04.404Z,76.88
2023-01-10T09:25:11.410Z,76.85
2023-01-10T09:28:13.727Z,76.66
2023-01-10T09:31:16.168Z,76.46
2023-01-10T09:34:20.548Z,76.48
2023-01-10T09:37:23.295Z,76.60
2023-01-10T09:40:39.759Z,76.69
2023-01-10T09:43:46.226Z,76.60
2023-01-10T09:46:54.787Z,76.14
2023-01-10T09:50:27.891Z,74.85
2023-01-10T09:53:31.806Z,75.65
2023-01-10T09:56:36.897Z,75.45
2023-01-10T09:59:41.661Z,77.14
2023-01-10T10:02:46.118Z,76.30
2023-01-10T10:05:50.581Z,75.51
2023-01-10T10:08:54.336Z,76.31
2023-01-10T10:12:23.485Z,74.85
2023-01-10T10:15:44.914Z,75.82
2023-01-10T10:19:14.640Z,75.37
2023-01-10T10:22:26.683Z,77.26
2023-01-10T10:25:36.050Z,74.95
2023-01-10T10:28:54.893Z,75.15
2023-01-10T10:31:57.382Z,72.99
2023-01-10T10:35:28.145Z,73.14
2023-01-10T10:38:34.281Z,71.71
2023-01-10T10:41:42.949Z,73.72
2023-01-10T10:45:05.047Z,73.40
2023-01-10T10:48:33.444Z,74.38
2023-01-10T10:51:51.687Z,74.01
2023-01-10T10:54:56.712Z,74.20
2023-01-10T10:58:00.808Z,75.18
2023-01-10T11:01:03.635Z,75.01
2023-01-10T11:04:11.021Z,74.75
2023-01-10T11:07:16.755Z,75.13
2023-01-10T11:10:36.373Z,74.86
2023-01-10T11:13:55.372Z,75.07
2023-01-10T11:17:23.674Z,74.73
2023-01-10T11:20:25.957Z,74.82
2023-01-10T11:23:38.965Z,75.70
2023-01-10T11:26:41.427Z,76.35
2023-01-10T11:29:50.227Z,74.78
2023-01-10T11:33:06.294Z,74.81
2023-01-10T11:36:13.116Z,74.77
2023-01-10T11:39:17.955Z,73.79
2023-01-10T11:42:30.566Z,74.16
2023-01-10T11:45:34.384Z,74.53
2023-01-10T11:49:08.624Z,74.65
2023-01-10T11:52:23.956Z,74.39
2023-01-10T11:55:29.225Z,74.32
2023-01-10T11:58:33.415Z,73.93
2023-01-10T12:01:49.012Z,73.29
2023-01-10T12:04:53.618Z,72.80
2023-01-10T12:08:06.540Z,74.14
2023-01-10T12:11:18.243Z,74.81
2023-01-10T12:14:20.809Z,75.70
2023-01-10T12:17:31.672Z,75.07
2023-01-10T12:20:49.651Z,75.32
2023-01-10T12:23:53.453Z,74.77
2023-01-10T12:26:56.407Z,74.72
2023-01-10T12:30:12.210Z,74.29
2023-01-10T12:37:03.179Z,74.36
2023-01-10T12:40:36.996Z,72.88
2023-01-10T12:44:00.616Z,73.15
2023-01-10T12:47:15.243Z,73.84
2023-01-10T12:50:22.822Z,71.90
2023-01-10T12:53:31.088Z,72.25
2023-01-10T12:56:33.431Z,72.86
2023-01-10T12:59:40.299Z,74.46
2023-01-10T13:02:45.388Z,73.49
2023-01-10T13:05:49.966Z,76.98
2023-01-10T13:08:52.549Z,72.49
2023-01-10T13:12:06.852Z,72.87
2023-01-10T13:15:27.849Z,72.61
2023-01-10T13:18:31.787Z,74.04
2023-01-10T13:21:34.713Z,74.02
2023-01-10T13:24:37.212Z,73.62
2023-01-10T13:27:39.453Z,73.51
2023-01-10T13:30:42.181Z,73.57
2023-01-10T13:33:55.934Z,73.25
2023-01-10T13:37:05.195Z,74.01
2023-01-10T13:40:08.033Z,73.16
2023-01-10T13:43:34.738Z,74.28
2023-01-10T13:46:39.387Z,73.41
2023-01-10T13:49:44.268Z,73.41
2023-01-10T13:52:46.592Z,73.93
2023-01-10T13:55:58.027Z,73.51
2023-01-10T13:59:18.407Z,73.07
2023-01-10T14:02:32.024Z,72.73
2023-01-10T14:05:34.542Z,73.64
2023-01-10T14:08:37.363Z,72.86
2023-01-10T14:11:45.721Z,72.79
2023-01-10T14:14:54.533Z,74.56
2023-01-10T14:18:24.181Z,73.41
2023-01-10T14:21:27.960Z,72.85
2023-01-10T14:24:39.370Z,73.22
2023-01-10T14:27:47.344Z,73.60
2023-01-10T14:31:13.072Z,73.89
2023-01-10T14:34:25.263Z,73.61
2023-01-10T14:37:57.497Z,73.11
2023-01-10T14:41:05.834Z,73.14
2023-01-10T14:44:13.958Z,72.19
2023-01-10T14:47:29.855Z,72.98
2023-01-10T14:50:35.809Z,72.77
2023-01-10T14:53:38.016Z,73.19
2023-01-10T14:56:43.136Z,72.95
2023-01-10T14:59:45.654Z,71.82
2023-01-10T15:02:48.838Z,72.77
2023-01-10T15:05:53.508Z,71.32
2023-01-10T15:09:00.356Z,72.87
2023-01-10T15:12:04.977Z,72.23
2023-01-10T15:15:19.579Z,71.68
2023-01-10T15:18:38.702Z,72.22
2023-01-10T15:21:43.307Z,71.35
2023-01-10T15:24:57.720Z,71.82
2023-01-10T15:28:03.282Z,72.42
2023-01-10T15:31:06.357Z,73.02
2023-01-10T15:34:11.438Z,71.62
2023-01-10T15:37:20.891Z,71.84
2023-01-10T15:40:28.271Z,72.36
2023-01-10T15:43:31.915Z,72.67
2023-01-10T15:46:37.484Z,72.61
2023-01-10T15:49:39.894Z,72.55
2023-01-10T15:53:02.941Z,72.50
2023-01-10T15:56:11.838Z,71.97
2023-01-10T15:59:37.089Z,72.12
2023-01-10T16:02:40.716Z,71.62
2023-01-10T16:05:54.816Z,72.98
2023-01-10T16:08:59.364Z,72.70
2023-01-10T16:12:20.299Z,71.34
2023-01-10T16:15:25.115Z,71.20
2023-01-10T16:18:27.913Z,71.62
2023-01-10T16:21:38.527Z,70.82
2023-01-10T16:24:42.889Z,71.91
2023-01-10T16:27:45.754Z,71.40
2023-01-10T16:30:48.768Z,72.04
2023-01-10T16:33:51.833Z,71.78
2023-01-10T16:36:54.222Z,71.52
2023-01-10T16:39:56.814Z,71.98
2023-01-10T16:43:17.715Z,71.91
2023-01-10T16:46:20.186Z,71.29
2023-01-10T16:49:22.638Z,71.61
2023-01-10T16:52:24.930Z,71.56
2023-01-10T16:55:37.022Z,72.04
2023-01-10T16:58:39.312Z,70.74
2023-01-10T17:01:47.942Z,71.63
2023-01-10T17:04:50.316Z,71.05
2023-01-10T17:07:52.565Z,71.54
2023-01-10T17:10:59.609Z,70.72
2023-01-10T17:14:02.871Z,72.10
2023-01-10T17:17:05.511Z,70.07
2023-01-10T17:20:08.465Z,71.36
2023-01-10T17:23:12.521Z,70.92
2023-01-10T17:26:16.354Z,70.36
2023-01-10T17:29:18.575Z,71.35
2023-01-10T17:32:20.791Z,70.78
2023-01-10T17:35:26.958Z,70.23
2023-01-10T17:38:32.240Z,71.27
2023-01-10T17:41:34.652Z,69.72
2023-01-10T17:44:37.011Z,71.09
2023-01-10T17:47:39.323Z,70.67
2023-01-10T17:50:42.872Z,70.57
2023-01-10T17:53:45.232Z,69.16
2023-01-10T17:56:47.997Z,69.39
2023-01-10T17:59:50.311Z,69.76
2023-01-10T18:02:53.296Z,70.64
2023-01-10T18:05:57.199Z,70.44
2023-01-10T18:09:00.942Z,68.76
2023-01-10T18:12:03.437Z,69.47
2023-01-10T18:15:06.408Z,69.85
2023-01-10T18:18:08.956Z,70.25
2023-01-10T18:21:13.601Z,69.88
2023-01-10T18:24:15.933Z,69.36
2023-01-10T18:27:18.200Z,69.61
2023-01-10T18:30:22.350Z,69.25
2023-01-10T18:33:24.667Z,69.43
2023-01-10T18:36:26.945Z,68.70
2023-01-10T18:39:29.352Z,68.66
2023-01-10T18:42:31.749Z,69.12
2023-01-10T18:45:34.035Z,68.89
2023-01-10T18:48:36.480Z,68.00
2023-01-10T18:51:38.777Z,67.56
2023-01-10T18:54:41.141Z,67.60
2023-01-10T18:57:43.507Z,67.42
2023-01-10T19:00:45.799Z,66.99
2023-01-10T19:03:50.295Z,66.74
2023-01-10T19:06:52.590Z,67.39
2023-01-10T19:09:54.835Z,67.68
2023-01-10T19:12:57.091Z,66.05
2023-01-10T19:16:16.924Z,67.46
2023-01-10T19:19:19.336Z,67.38
2023-01-10T19:22:23.649Z,65.76
2023-01-10T19:25:26.096Z,67.41
2023-01-10T19:28:29.854Z,67.23
2023-01-10T19:31:32.445Z,67.41
2023-01-10T19:34:34.920Z,67.04
2023-01-10T19:37:37.330Z,67.21
2023-01-10T19:40:39.800Z,67.07
2023-01-10T19:43:42.279Z,67.16
2023-01-10T19:46:47.528Z,67.18
2023-01-10T19:49:51.246Z,67.48
2023-01-10T19:52:53.614Z,68.76
2023-01-10T19:56:02.061Z,67.03
2023-01-10T19:59:04.502Z,66.84
2023-01-10T20:02:06.812Z,66.72
2023-01-10T20:05:09.660Z,67.42
2023-01-10T20:08:12.013Z,67.50
2023-01-10T20:11:15.162Z,68.28
2023-01-10T20:14:19.918Z,67.48
2023-01-10T20:17:22.342Z,66.52
2023-01-10T20:20:24.675Z,66.33
2023-01-10T20:23:29.577Z,67.46
2023-01-10T20:26:31.898Z,66.83
2023-01-10T20:29:34.496Z,67.67
2023-01-10T20:32:36.777Z,66.26
2023-01-10T20:35:40.352Z,66.62
2023-01-10T20:38:43.131Z,66.67
2023-01-10T20:41:45.486Z,67.05
2023-01-10T20:44:47.776Z,66.86
2023-01-10T20:47:53.392Z,67.36
2023-01-10T20:50:56.173Z,65.26
2023-01-10T20:53:59.599Z,64.87
2023-01-10T20:57:02.088Z,66.04
2023-01-10T21:00:04.778Z,65.43
2023-01-10T21:03:07.352Z,65.64
2023-01-10T21:06:10.272Z,66.03
2023-01-10T21:09:14.931Z,65.74
2023-01-10T21:12:22.831Z,65.45
2023-01-10T21:15:25.819Z,65.94
2023-01-10T21:18:34.463Z,65.78
2023-01-10T21:21:38.377Z,65.00
2023-01-10T21:24:42.828Z,65.77
2023-01-10T21:27:45.094Z,65.21
2023-01-10T21:30:47.986Z,65.28
2023-01-10T21:33:50.340Z,66.18
2023-01-10T21:36:52.748Z,65.98
2023-01-10T21:39:56.218Z,65.86
2023-01-10T21:43:00.079Z,66.04
2023-01-10T21:46:02.680Z,64.94
2023-01-10T21:49:05.304Z,65.37
2023-01-10T21:52:07.688Z,65.75
2023-01-10T21:55:10.868Z,66.32
2023-01-10T21:58:13.136Z,65.09
2023-01-10T22:01:15.712Z,64.92
2023-01-10T22:04:18.053Z,64.98
2023-01-10T22:07:21.612Z,65.97
2023-01-10T22:10:24.138Z,65.64
2023-01-10T22:13:26.823Z,65.80
2023-01-10T22:16:29.124Z,65.41
2023-01-10T22:19:31.464Z,66.21
2023-01-10T22:22:33.711Z,64.90
2023-01-10T22:25:36.065Z,65.75
2023-01-10T22:28:38.390Z,65.68
2023-01-10T22:31:41.509Z,65.85
2023-01-10T22:34:43.870Z,65.78
2023-01-10T22:37:46.132Z,66.76
2023-01-10T22:40:48.431Z,67.19
2023-01-10T22:43:52.916Z,65.93
2023-01-10T22:46:55.761Z,66.75
2023-01-10T22:49:58.031Z,66.98
2023-01-10T22:53:00.331Z,66.20
2023-01-10T22:56:03.857Z,66.87
2023-01-10T22:59:06.105Z,67.09
2023-01-10T23:02:08.376Z,67.35
2023-01-10T23:05:10.827Z,66.77
2023-01-10T23:08:13.318Z,67.47
2023-01-10T23:11:17.271Z,67.81
2023-01-10T23:14:19.507Z,67.86
2023-01-10T23:17:21.835Z,68.10
2023-01-10T23:20:24.099Z,67.74
2023-01-10T23:23:27.077Z,68.09
2023-01-10T23:26:29.323Z,67.38
2023-01-10T23:29:31.606Z,67.34
2023-01-10T23:32:34.000Z,67.39
2023-01-10T23:35:36.250Z,67.23
2023-01-10T23:38:38.768Z,66.67
2023-01-10T23:41:40.984Z,67.18
2023-01-10T23:44:44.241Z,66.89
2023-01-10T23:47:46.518Z,67.40
2023-01-10T23:50:50.095Z,67.92
2023-01-10T23:53:52.395Z,67.41
2023-01-10T23:56:54.745Z,67.87
2023-01-10T23:59:59.853Z,67.86
